LPLA METAR and TAF weather

Enter ICAO airport designator
Station Type Date Time Source
LPLA METAR 2021/03/02 16:00 UTC NOAA

LPLA 021600Z /////KT 9999 -RA FEW007 SCT020 BKN028 16/14 Q1010


Station Type Date Time Source
LPLA Decoded METAR 2021/03/02 16:00 UTC NOAA

Lajes Acores , Portugal (LPLA) 38-46N 027-06W 54M
Mar 02, 2021 - 11:00 AM EST / 2021.03.02 1600 UTC
Visibility: greater than 7 mile(s):0
Sky conditions: mostly cloudy
Weather: light rain
Temperature: 60 F (16 C)
Dew Point: 57 F (14 C)
Relative Humidity: 87%
Pressure (altimeter): 29.83 in. Hg (1010 hPa)
ob: LPLA 021600Z /////KT 9999 -RA FEW007 SCT020 BKN028 16/14 Q1010
cycle: 16

Station Type Date Time Source
LPLA TAF 2021/03/02 12:18 UTC NOAA

TAF LPLA 021103Z 0212/0312 18018KT 9999 SCT020 SCT030
TEMPO 0212/0216 18020G30KT 6000 -RADZ SCT010 BKN020
TEMPO 0216/0222 20025G40KT 4000 RADZ SCT007 BKN014 PROB40
TEMPO 0217/0221 1200 +TSRA SCT004 BKN007 BKN020CB
BECMG 0221/0223 27015KT SCT020
TEMPO 0222/0312 30018G30KT PROB40
TEMPO 0222/0306 30025G35KT 4000 SHRA BKN018 SCT022TCU

Example: see airport list